Time;durP1;ratioP1;P1;durP2;ratioP2;P2;SDS_P1;SDS_P2;PMS_P1;PMS_P2;Temp;Humidity;BMP_temperature;BMP_pressure;BME280_temperature;BME280_humidity;BME280_pressure;Samples;Min_cycle;Max_cycle;Signal;HPM_P1;HPM_P2
2022/07/07 00:01:07;;;;;;;;;;;19.10;95.60;;;;;;4361605;32;43474;-76
2022/07/07 00:03:34;;;;;;;;;;;19.10;95.70;;;;;;4361438;32;43217;-75
2022/07/07 00:06:01;;;;;;;;;;;19.10;95.70;;;;;;4361624;32;43877;-75
2022/07/07 00:08:28;;;;;;;;;;;19.10;95.70;;;;;;4361610;32;42382;-75
2022/07/07 00:10:56;;;;;;;;;;;19.10;95.80;;;;;;4360626;32;43768;-75
2022/07/07 00:13:23;;;;;;;;;;;19.00;95.80;;;;;;4348205;32;44757;-75
2022/07/07 00:15:51;;;;;;;;;;;19.00;95.70;;;;;;4361625;32;44729;-75
2022/07/07 00:18:18;;;;;;;;;;;19.00;95.80;;;;;;4361307;32;43741;-75
2022/07/07 00:20:45;;;;;;;;;;;19.00;95.80;;;;;;4361405;32;43467;-76
2022/07/07 00:23:12;;;;;;;;;;;19.00;95.80;;;;;;4361489;32;43635;-76
2022/07/07 00:25:39;;;;;;;;;;;19.00;95.80;;;;;;4361013;32;42134;-76
2022/07/07 00:28:06;;;;;;;;;;;19.00;95.90;;;;;;4361168;32;42860;-75
2022/07/07 00:30:33;;;;;;;;;;;19.00;95.90;;;;;;4348045;32;44625;-75
2022/07/07 00:33:00;;;;;;;;;;;19.00;95.90;;;;;;4348032;32;43835;-76
2022/07/07 00:35:27;;;;;;;;;;;19.00;96.00;;;;;;4359844;32;42145;-76
2022/07/07 00:37:54;;;;;;;;;;;19.00;96.00;;;;;;4347940;32;43923;-76
2022/07/07 00:40:22;;;;;;;;;;;19.00;96.00;;;;;;4360849;32;43228;-76
2022/07/07 00:42:49;;;;;;;;;;;19.00;96.10;;;;;;4361150;32;44625;-77
2022/07/07 00:45:16;;;;;;;;;;;19.00;96.20;;;;;;4360773;32;43983;-77
2022/07/07 00:47:43;;;;;;;;;;;19.00;96.10;;;;;;4347707;32;43956;-76
2022/07/07 00:50:10;;;;;;;;;;;19.00;96.30;;;;;;4347733;32;42373;-78
2022/07/07 00:52:37;;;;;;;;;;;19.00;96.10;;;;;;4359959;32;42922;-77
2022/07/07 00:55:07;;;;;;;;;;;19.00;96.30;;;;;;4347701;32;44138;-78
2022/07/07 00:57:36;;;;;;;;;;;19.00;96.20;;;;;;4347354;32;44167;-77
2022/07/07 01:00:06;;;;;;;;;;;19.00;96.20;;;;;;4359561;32;43225;-76
2022/07/07 01:02:34;;;;;;;;;;;19.00;96.30;;;;;;4360398;32;45172;-76
2022/07/07 01:05:03;;;;;;;;;;;19.00;96.30;;;;;;4360926;32;45763;-77
2022/07/07 01:07:31;;;;;;;;;;;19.00;96.40;;;;;;4360832;32;43790;-78
2022/07/07 01:09:59;;;;;;;;;;;19.00;96.60;;;;;;4360759;32;44015;-78
2022/07/07 01:12:31;;;;;;;;;;;19.00;96.60;;;;;;4360776;32;44210;-77
2022/07/07 01:14:59;;;;;;;;;;;18.90;96.70;;;;;;4360951;32;43892;-78
2022/07/07 01:17:25;;;;;;;;;;;18.90;96.70;;;;;;4360675;32;43474;-76
2022/07/07 01:19:53;;;;;;;;;;;18.90;96.70;;;;;;4346946;32;43861;-75
2022/07/07 01:22:22;;;;;;;;;;;19.00;96.80;;;;;;4360214;32;44782;-79
2022/07/07 01:24:49;;;;;;;;;;;18.90;96.80;;;;;;4360240;32;44121;-76
2022/07/07 01:27:17;;;;;;;;;;;18.90;96.80;;;;;;4360601;32;43931;-77
2022/07/07 01:29:48;;;;;;;;;;;18.90;96.80;;;;;;4360332;32;43190;-76
2022/07/07 01:32:15;;;;;;;;;;;18.90;96.80;;;;;;4359978;32;43017;-76
2022/07/07 01:34:43;;;;;;;;;;;18.90;96.90;;;;;;4359375;32;43905;-76
2022/07/07 01:37:11;;;;;;;;;;;19.00;96.90;;;;;;4360001;32;42504;-76
2022/07/07 01:39:38;;;;;;;;;;;18.90;97.00;;;;;;4360166;32;45850;-75
2022/07/07 01:42:06;;;;;;;;;;;18.90;97.10;;;;;;4347098;32;42087;-76
2022/07/07 01:44:37;;;;;;;;;;;18.90;97.00;;;;;;4360204;32;43880;-76
2022/07/07 01:47:05;;;;;;;;;;;18.90;97.10;;;;;;4360090;32;43629;-77
2022/07/07 01:49:33;;;;;;;;;;;18.90;97.20;;;;;;4359934;32;43574;-75
2022/07/07 01:52:00;;;;;;;;;;;18.90;97.30;;;;;;4359826;32;44127;-81
2022/07/07 01:54:27;;;;;;;;;;;18.90;97.40;;;;;;4359874;32;43148;-76
2022/07/07 01:56:55;;;;;;;;;;;18.90;97.30;;;;;;4359831;32;42890;-75
2022/07/07 01:59:22;;;;;;;;;;;18.90;97.40;;;;;;4360183;32;44713;-76
2022/07/07 02:01:49;;;;;;;;;;;18.90;97.40;;;;;;4346555;32;43450;-75
2022/07/07 02:04:16;;;;;;;;;;;18.90;97.50;;;;;;4359852;32;42902;-75
2022/07/07 02:06:43;;;;;;;;;;;18.90;97.40;;;;;;4358906;32;43212;-75
2022/07/07 02:09:11;;;;;;;;;;;18.90;97.70;;;;;;4359681;32;42269;-75
2022/07/07 02:11:38;;;;;;;;;;;18.90;97.70;;;;;;4360180;32;43839;-75
2022/07/07 02:14:06;;;;;;;;;;;18.90;97.70;;;;;;4346791;32;43234;-74
2022/07/07 02:16:33;;;;;;;;;;;18.90;97.70;;;;;;4360006;32;42884;-75
2022/07/07 02:19:05;;;;;;;;;;;18.80;97.70;;;;;;4359624;32;42046;-75
2022/07/07 02:21:33;;;;;;;;;;;18.80;97.70;;;;;;4359790;33;42169;-75
2022/07/07 02:24:00;;;;;;;;;;;18.80;97.90;;;;;;4359716;33;43474;-77
2022/07/07 02:26:27;;;;;;;;;;;18.80;97.90;;;;;;4360039;33;44161;-76
2022/07/07 02:28:54;;;;;;;;;;;18.80;98.00;;;;;;4346567;33;44243;-76
2022/07/07 02:31:21;;;;;;;;;;;18.80;97.90;;;;;;4359684;33;42500;-76
2022/07/07 02:33:48;;;;;;;;;;;18.80;98.20;;;;;;4359521;33;43707;-76
2022/07/07 02:36:15;;;;;;;;;;;18.80;98.00;;;;;;4360050;33;43402;-76
2022/07/07 02:38:42;;;;;;;;;;;18.80;98.20;;;;;;4359828;33;43769;-75
2022/07/07 02:41:10;;;;;;;;;;;18.80;98.10;;;;;;4359474;33;43179;-76
2022/07/07 02:43:37;;;;;;;;;;;18.80;98.40;;;;;;4346567;33;43112;-76
2022/07/07 02:46:05;;;;;;;;;;;18.80;98.20;;;;;;4359866;33;43235;-75
2022/07/07 02:48:32;;;;;;;;;;;18.80;98.20;;;;;;4359928;33;44188;-75
2022/07/07 02:50:59;;;;;;;;;;;18.80;98.20;;;;;;4359648;33;44316;-76
2022/07/07 02:53:27;;;;;;;;;;;18.80;98.30;;;;;;4359372;33;43665;-76
2022/07/07 02:55:54;;;;;;;;;;;18.80;98.40;;;;;;4359462;33;43612;-75
2022/07/07 02:58:23;;;;;;;;;;;18.80;98.60;;;;;;4358697;32;43623;-75
2022/07/07 03:00:50;;;;;;;;;;;18.80;98.60;;;;;;4349063;32;44057;-75
2022/07/07 03:03:18;;;;;;;;;;;18.80;98.20;;;;;;4362043;32;43840;-75
2022/07/07 03:05:45;;;;;;;;;;;18.80;98.40;;;;;;4362784;32;43671;-75
2022/07/07 03:08:13;;;;;;;;;;;18.80;98.50;;;;;;4362105;32;43701;-75
2022/07/07 03:10:41;;;;;;;;;;;18.80;98.60;;;;;;4348740;32;44042;-75
2022/07/07 03:13:08;;;;;;;;;;;18.80;98.60;;;;;;4360961;32;42671;-75
2022/07/07 03:15:35;;;;;;;;;;;18.80;98.40;;;;;;4362198;32;43681;-75
2022/07/07 03:18:02;;;;;;;;;;;18.80;98.50;;;;;;4362120;32;43662;-77
2022/07/07 03:20:30;;;;;;;;;;;18.80;98.80;;;;;;4349204;32;43478;-75
2022/07/07 03:22:57;;;;;;;;;;;18.80;98.70;;;;;;4362386;32;43531;-76
2022/07/07 03:25:24;;;;;;;;;;;18.80;98.60;;;;;;4361897;32;44242;-75
2022/07/07 03:27:51;;;;;;;;;;;18.80;98.60;;;;;;4361868;32;44250;-76
2022/07/07 03:30:18;;;;;;;;;;;18.80;98.60;;;;;;4361858;32;43675;-75
2022/07/07 03:32:45;;;;;;;;;;;18.80;98.60;;;;;;4348390;32;44176;-76
2022/07/07 03:35:12;;;;;;;;;;;18.80;98.70;;;;;;4361800;32;43989;-76
2022/07/07 03:37:39;;;;;;;;;;;18.80;98.60;;;;;;4361768;32;42340;-76
2022/07/07 03:40:07;;;;;;;;;;;18.80;98.80;;;;;;4362118;32;45763;-76
2022/07/07 03:42:36;;;;;;;;;;;18.80;98.70;;;;;;4361241;32;43858;-76
2022/07/07 03:45:03;;;;;;;;;;;18.80;98.70;;;;;;4362129;32;43881;-76
2022/07/07 03:47:31;;;;;;;;;;;18.80;98.60;;;;;;4361799;32;42895;-75
2022/07/07 03:49:58;;;;;;;;;;;18.80;98.70;;;;;;4362082;32;44204;-76
2022/07/07 03:52:25;;;;;;;;;;;18.80;98.80;;;;;;4361922;32;43951;-75
2022/07/07 03:54:52;;;;;;;;;;;18.80;98.70;;;;;;4348439;32;45904;-75
2022/07/07 03:57:19;;;;;;;;;;;18.80;98.80;;;;;;4361460;32;42774;-76
2022/07/07 03:59:46;;;;;;;;;;;18.80;99.00;;;;;;4348089;32;43679;-76
2022/07/07 04:02:13;;;;;;;;;;;18.80;98.90;;;;;;4347849;32;43215;-76
2022/07/07 04:04:40;;;;;;;;;;;18.80;98.70;;;;;;4361764;32;42884;-76
2022/07/07 04:07:08;;;;;;;;;;;18.80;98.80;;;;;;4361903;32;43707;-76
2022/07/07 04:09:35;;;;;;;;;;;18.80;99.10;;;;;;4361620;32;43840;-76
2022/07/07 04:12:02;;;;;;;;;;;18.80;98.90;;;;;;4347757;32;44259;-75
2022/07/07 04:14:30;;;;;;;;;;;18.80;99.30;;;;;;4348357;32;44123;-76
2022/07/07 04:16:57;;;;;;;;;;;18.80;99.00;;;;;;4348447;32;43056;-75
2022/07/07 04:19:24;;;;;;;;;;;18.80;99.30;;;;;;4361157;32;43855;-76
2022/07/07 04:21:51;;;;;;;;;;;18.80;98.90;;;;;;4348349;32;43046;-76
2022/07/07 04:24:18;;;;;;;;;;;18.80;99.00;;;;;;4348047;32;43816;-76
2022/07/07 04:26:46;;;;;;;;;;;18.80;99.00;;;;;;4361244;32;44183;-76
2022/07/07 04:29:13;;;;;;;;;;;18.80;99.10;;;;;;4361421;32;44261;-76
2022/07/07 04:31:44;;;;;;;;;;;18.70;99.00;;;;;;4361497;32;43198;-75
2022/07/07 04:34:12;;;;;;;;;;;18.70;99.10;;;;;;4360370;32;43870;-77
2022/07/07 04:36:40;;;;;;;;;;;18.70;99.10;;;;;;4359961;32;43032;-76
2022/07/07 04:39:08;;;;;;;;;;;18.70;99.20;;;;;;4360827;32;43187;-76
2022/07/07 04:41:36;;;;;;;;;;;18.70;99.10;;;;;;4347567;32;44024;-75
2022/07/07 04:44:05;;;;;;;;;;;18.70;99.20;;;;;;4361029;32;43182;-76
2022/07/07 04:46:32;;;;;;;;;;;18.70;99.40;;;;;;4360174;32;44210;-76
2022/07/07 04:49:02;;;;;;;;;;;18.70;99.30;;;;;;4347846;32;43063;-78
2022/07/07 04:51:30;;;;;;;;;;;18.70;99.40;;;;;;4361073;32;43734;-76
2022/07/07 04:53:57;;;;;;;;;;;18.70;99.40;;;;;;4360986;32;43845;-76
2022/07/07 04:56:24;;;;;;;;;;;18.70;99.30;;;;;;4360909;32;42627;-76
2022/07/07 04:58:51;;;;;;;;;;;18.70;99.40;;;;;;4360866;32;42732;-75
2022/07/07 05:01:18;;;;;;;;;;;18.70;99.40;;;;;;4361027;32;43685;-75
2022/07/07 05:03:45;;;;;;;;;;;18.70;99.40;;;;;;4360890;32;44926;-76
2022/07/07 05:06:14;;;;;;;;;;;18.70;99.50;;;;;;4359491;32;42273;-76
2022/07/07 05:08:44;;;;;;;;;;;18.70;99.50;;;;;;4347250;32;45280;-76
2022/07/07 05:11:11;;;;;;;;;;;18.70;99.60;;;;;;4347089;32;43916;-76
2022/07/07 05:13:38;;;;;;;;;;;18.70;99.70;;;;;;4347174;32;44306;-76
2022/07/07 05:16:05;;;;;;;;;;;18.70;99.70;;;;;;4347295;32;45044;-76
2022/07/07 05:18:32;;;;;;;;;;;18.70;99.70;;;;;;4360282;32;43465;-76
2022/07/07 05:21:00;;;;;;;;;;;18.70;99.80;;;;;;4360666;32;45766;-76
2022/07/07 05:23:27;;;;;;;;;;;18.70;99.70;;;;;;4360233;32;44220;-76
2022/07/07 05:25:56;;;;;;;;;;;18.70;99.70;;;;;;4360034;32;44384;-76
2022/07/07 05:28:24;;;;;;;;;;;18.70;99.70;;;;;;4358855;32;43346;-76
2022/07/07 05:30:51;;;;;;;;;;;18.70;99.80;;;;;;4360387;32;43458;-76
2022/07/07 05:33:18;;;;;;;;;;;18.70;99.70;;;;;;4359896;32;42604;-77
2022/07/07 05:35:50;;;;;;;;;;;18.70;99.90;;;;;;4348180;32;31924;-76
2022/07/07 05:38:17;;;;;;;;;;;18.70;99.90;;;;;;4346617;32;44037;-77
2022/07/07 05:40:44;;;;;;;;;;;18.70;99.80;;;;;;4359894;32;43758;-75
2022/07/07 05:43:11;;;;;;;;;;;18.70;99.90;;;;;;4360102;32;43606;-76
2022/07/07 05:45:38;;;;;;;;;;;18.70;99.90;;;;;;4360374;32;43568;-78
2022/07/07 05:48:06;;;;;;;;;;;18.70;99.90;;;;;;4347027;32;43008;-77
2022/07/07 05:50:35;;;;;;;;;;;18.70;99.90;;;;;;4360383;32;44215;-79
2022/07/07 05:53:02;;;;;;;;;;;18.60;99.90;;;;;;4359825;32;43774;-77
2022/07/07 05:55:29;;;;;;;;;;;18.60;99.90;;;;;;4359713;32;45393;-80
2022/07/07 05:57:57;;;;;;;;;;;18.70;99.90;;;;;;4358747;32;44184;-80
2022/07/07 06:00:24;;;;;;;;;;;18.70;99.90;;;;;;4359070;32;45812;-80
2022/07/07 06:02:52;;;;;;;;;;;18.60;99.90;;;;;;4359584;32;43069;-80
2022/07/07 06:05:19;;;;;;;;;;;18.70;99.90;;;;;;4359890;32;43860;-79
2022/07/07 06:07:46;;;;;;;;;;;18.60;99.90;;;;;;4359854;32;43980;-78
2022/07/07 06:10:14;;;;;;;;;;;18.60;99.90;;;;;;4360067;32;43988;-79
2022/07/07 06:12:42;;;;;;;;;;;18.60;99.90;;;;;;4359676;32;43460;-80
2022/07/07 06:15:09;;;;;;;;;;;18.70;99.90;;;;;;4346286;32;43223;-78
2022/07/07 06:17:36;;;;;;;;;;;18.60;99.90;;;;;;4360045;32;43519;-78
2022/07/07 06:20:26;;;;;;;;;;;18.70;99.90;;;;;;4360150;32;44613;-79
2022/07/07 06:22:53;;;;;;;;;;;18.70;99.90;;;;;;4358879;33;43882;-76
2022/07/07 06:25:20;;;;;;;;;;;18.60;99.90;;;;;;4346321;33;43903;-78
2022/07/07 06:27:47;;;;;;;;;;;18.60;99.90;;;;;;4346714;33;43199;-79
2022/07/07 06:30:14;;;;;;;;;;;18.60;99.90;;;;;;4359713;33;43205;-75
2022/07/07 06:32:41;;;;;;;;;;;18.60;99.90;;;;;;4359995;32;42901;-76
2022/07/07 06:35:09;;;;;;;;;;;18.60;99.90;;;;;;4362535;32;42592;-78
2022/07/07 06:37:35;;;;;;;;;;;18.60;99.90;;;;;;4349530;32;42146;-77
2022/07/07 06:40:03;;;;;;;;;;;18.60;99.90;;;;;;4362940;32;44083;-77
2022/07/07 06:42:32;;;;;;;;;;;18.60;99.90;;;;;;4361449;32;42962;-78
2022/07/07 06:44:59;;;;;;;;;;;18.60;99.90;;;;;;4363668;32;20001;-79
2022/07/07 06:47:26;;;;;;;;;;;18.60;99.90;;;;;;4362380;32;44419;-77
2022/07/07 06:49:54;;;;;;;;;;;18.60;99.90;;;;;;4349566;32;43840;-80
2022/07/07 06:52:21;;;;;;;;;;;18.60;99.90;;;;;;4361704;32;43049;-76
2022/07/07 06:54:48;;;;;;;;;;;18.60;99.90;;;;;;4362248;32;43181;-76
2022/07/07 06:57:15;;;;;;;;;;;18.60;99.90;;;;;;4348999;32;43482;-78
2022/07/07 06:59:42;;;;;;;;;;;18.60;99.90;;;;;;4362543;32;44214;-76
2022/07/07 07:02:09;;;;;;;;;;;18.60;99.90;;;;;;4362258;32;43474;-77
2022/07/07 07:04:36;;;;;;;;;;;18.60;99.90;;;;;;4362692;32;44224;-76
2022/07/07 07:07:04;;;;;;;;;;;18.60;99.90;;;;;;4362013;32;43489;-78
2022/07/07 07:09:31;;;;;;;;;;;18.60;99.90;;;;;;4362514;32;44122;-80
2022/07/07 07:11:59;;;;;;;;;;;18.60;99.90;;;;;;4360889;32;44015;-78
2022/07/07 07:14:26;;;;;;;;;;;18.60;99.90;;;;;;4349111;32;44229;-77
2022/07/07 07:16:53;;;;;;;;;;;18.60;99.90;;;;;;4362321;32;43865;-82
2022/07/07 07:19:20;;;;;;;;;;;18.60;99.90;;;;;;4362305;32;45804;-79
2022/07/07 07:21:47;;;;;;;;;;;18.60;99.90;;;;;;4362432;32;43480;-83
2022/07/07 07:24:14;;;;;;;;;;;18.60;99.90;;;;;;4361207;32;44226;-84
2022/07/07 07:26:41;;;;;;;;;;;18.60;99.90;;;;;;4348576;32;42706;-84
2022/07/07 07:29:13;;;;;;;;;;;18.60;99.90;;;;;;4362181;32;42038;-79
2022/07/07 07:31:40;;;;;;;;;;;18.60;99.90;;;;;;4348976;32;46002;-81
2022/07/07 07:34:08;;;;;;;;;;;18.60;99.90;;;;;;4360632;32;42815;-78
2022/07/07 07:36:35;;;;;;;;;;;18.50;99.90;;;;;;4360642;32;43094;-84
2022/07/07 07:39:02;;;;;;;;;;;18.60;99.90;;;;;;4361819;32;42713;-81
2022/07/07 07:41:29;;;;;;;;;;;18.60;99.90;;;;;;4362175;32;43760;-82
2022/07/07 07:43:56;;;;;;;;;;;18.60;99.90;;;;;;4361884;32;46039;-82
2022/07/07 07:46:23;;;;;;;;;;;18.60;99.90;;;;;;4360061;32;43439;-85
2022/07/07 07:48:51;;;;;;;;;;;18.60;99.90;;;;;;4348355;32;43001;-84
2022/07/07 07:51:18;;;;;;;;;;;18.60;99.90;;;;;;4360447;32;44083;-84
2022/07/07 07:53:45;;;;;;;;;;;18.60;99.90;;;;;;4348298;32;46066;-80
2022/07/07 07:56:12;;;;;;;;;;;18.60;99.90;;;;;;4348020;32;43734;-85
2022/07/07 07:58:40;;;;;;;;;;;18.60;99.90;;;;;;4361315;32;44319;-85
2022/07/07 08:01:07;;;;;;;;;;;18.60;99.90;;;;;;4348566;32;43645;-83
2022/07/07 08:03:34;;;;;;;;;;;18.60;99.90;;;;;;4358026;32;42919;-83
2022/07/07 08:06:01;;;;;;;;;;;18.60;99.90;;;;;;4346172;33;43388;-81
2022/07/07 08:08:28;;;;;;;;;;;18.60;99.90;;;;;;4345910;33;43377;-82
2022/07/07 08:10:55;;;;;;;;;;;18.60;99.90;;;;;;4358002;32;43354;-84
2022/07/07 08:13:23;;;;;;;;;;;18.60;99.90;;;;;;4345514;33;43966;-85
2022/07/07 08:15:50;;;;;;;;;;;18.60;99.90;;;;;;4346413;33;43957;-81
2022/07/07 08:18:18;;;;;;;;;;;18.60;99.90;;;;;;4346844;32;44267;-81
2022/07/07 08:20:46;;;;;;;;;;;18.60;99.90;;;;;;4346302;33;43188;-84
2022/07/07 08:23:13;;;;;;;;;;;18.60;99.90;;;;;;4346311;33;42514;-82
2022/07/07 08:25:40;;;;;;;;;;;18.60;99.90;;;;;;4345470;33;43599;-86
2022/07/07 08:28:07;;;;;;;;;;;18.60;99.90;;;;;;4346287;33;43407;-86
2022/07/07 08:30:34;;;;;;;;;;;18.60;99.90;;;;;;4346721;33;43422;-87
2022/07/07 08:33:01;;;;;;;;;;;18.60;99.90;;;;;;4346172;33;43485;-83
2022/07/07 08:35:28;;;;;;;;;;;18.60;99.90;;;;;;4346153;33;43548;-85
2022/07/07 08:37:55;;;;;;;;;;;18.60;99.90;;;;;;4357724;32;45618;-84
2022/07/07 08:40:23;;;;;;;;;;;18.60;99.90;;;;;;4357550;32;43883;-85
2022/07/07 08:42:57;;;;;;;;;;;18.60;99.90;;;;;;4346584;33;43868;-85
2022/07/07 08:45:24;;;;;;;;;;;18.60;99.90;;;;;;4345952;32;44580;-83
2022/07/07 08:47:51;;;;;;;;;;;18.60;99.90;;;;;;4345919;33;44180;-80
2022/07/07 08:50:18;;;;;;;;;;;18.60;99.90;;;;;;4346095;33;43447;-83
2022/07/07 08:52:50;;;;;;;;;;;18.60;99.90;;;;;;4345992;33;44284;-82
2022/07/07 08:55:19;;;;;;;;;;;18.60;99.90;;;;;;4346336;33;46216;-84
2022/07/07 08:57:46;;;;;;;;;;;18.60;99.90;;;;;;4356231;32;43191;-83
2022/07/07 09:00:14;;;;;;;;;;;18.60;99.90;;;;;;4344824;33;45645;-79
2022/07/07 09:02:41;;;;;;;;;;;18.60;99.90;;;;;;4353945;32;44032;-80
2022/07/07 09:05:08;;;;;;;;;;;18.60;99.90;;;;;;4360506;32;43993;-79
2022/07/07 09:07:45;;;;;;;;;;;18.50;99.80;;;;;;4361025;32;43174;-80
2022/07/07 09:10:13;;;;;;;;;;;18.50;99.80;;;;;;4360833;32;44015;-80
2022/07/07 09:12:43;;;;;;;;;;;18.50;99.70;;;;;;4360407;32;42602;-80
2022/07/07 09:15:10;;;;;;;;;;;18.50;99.70;;;;;;4347079;32;42900;-79
2022/07/07 09:17:37;;;;;;;;;;;18.50;99.70;;;;;;4360828;32;43911;-79
2022/07/07 09:20:05;;;;;;;;;;;18.50;99.70;;;;;;4360922;32;45690;-81
2022/07/07 09:22:47;;;;;;;;;;;18.50;99.70;;;;;;4347481;32;44800;-81
2022/07/07 09:25:15;;;;;;;;;;;18.50;99.80;;;;;;4346946;32;42669;-81
2022/07/07 09:28:06;;;;;;;;;;;18.50;99.70;;;;;;4360142;32;44215;-80
2022/07/07 09:30:40;;;;;;;;;;;18.50;99.80;;;;;;4356442;32;42581;-79
2022/07/07 09:33:08;;;;;;;;;;;18.50;99.90;;;;;;4359655;32;43220;-80
2022/07/07 09:38:22;;;;;;;;;;;18.50;99.90;;;;;;4360464;32;43797;-84
2022/07/07 09:40:50;;;;;;;;;;;18.50;99.90;;;;;;4360122;32;43794;-78
2022/07/07 09:43:18;;;;;;;;;;;18.50;99.90;;;;;;4346982;32;43176;-83
2022/07/07 09:46:03;;;;;;;;;;;18.50;99.90;;;;;;4359951;32;45168;-82
2022/07/07 09:48:31;;;;;;;;;;;18.50;99.90;;;;;;4359853;32;45107;-79
2022/07/07 09:51:18;;;;;;;;;;;18.50;99.90;;;;;;4360689;32;43307;-80
2022/07/07 09:53:56;;;;;;;;;;;18.40;99.90;;;;;;4359154;32;43654;-80
2022/07/07 09:56:25;;;;;;;;;;;18.50;99.90;;;;;;4361129;32;20347;-79
2022/07/07 09:58:52;;;;;;;;;;;18.50;99.90;;;;;;4359883;32;42737;-81
2022/07/07 10:01:24;;;;;;;;;;;18.50;99.90;;;;;;4360145;32;45769;-80
2022/07/07 10:03:54;;;;;;;;;;;18.50;99.80;;;;;;4347179;32;43147;-79
2022/07/07 10:06:22;;;;;;;;;;;18.50;99.80;;;;;;4359255;32;44279;-80
2022/07/07 10:08:52;;;;;;;;;;;18.50;99.70;;;;;;4358789;32;44781;-81
2022/07/07 10:11:21;;;;;;;;;;;18.50;99.60;;;;;;4360025;32;43607;-77
2022/07/07 10:13:50;;;;;;;;;;;18.60;99.40;;;;;;4359176;32;45688;-84
2022/07/07 10:16:17;;;;;;;;;;;18.50;99.40;;;;;;4346632;32;44023;-81
2022/07/07 10:18:49;;;;;;;;;;;18.60;99.50;;;;;;4360078;32;44143;-78
2022/07/07 10:21:16;;;;;;;;;;;18.60;99.50;;;;;;4346620;33;43495;-81
2022/07/07 10:23:43;;;;;;;;;;;18.60;99.40;;;;;;4346189;33;43791;-81
2022/07/07 10:26:10;;;;;;;;;;;18.60;99.40;;;;;;4346259;33;43933;-79
2022/07/07 10:28:50;;;;;;;;;;;18.60;99.50;;;;;;4346479;33;44208;-82
2022/07/07 10:31:22;;;;;;;;;;;18.50;99.50;;;;;;4359054;33;45628;-79
2022/07/07 10:34:05;;;;;;;;;;;18.50;99.50;;;;;;4359987;33;43221;-79
2022/07/07 10:36:51;;;;;;;;;;;18.50;99.60;;;;;;4359057;33;43209;-79
2022/07/07 10:39:22;;;;;;;;;;;18.50;99.60;;;;;;4360125;33;43512;-80
2022/07/07 10:42:09;;;;;;;;;;;18.50;99.70;;;;;;4359987;33;41964;-77
2022/07/07 10:44:37;;;;;;;;;;;18.60;99.70;;;;;;4359798;33;44212;-82
2022/07/07 10:47:24;;;;;;;;;;;18.50;99.70;;;;;;4359797;33;44224;-80
2022/07/07 10:49:55;;;;;;;;;;;18.50;99.60;;;;;;4358946;33;44176;-81
2022/07/07 10:52:26;;;;;;;;;;;18.50;99.50;;;;;;4359893;33;42498;-82
2022/07/07 10:54:59;;;;;;;;;;;18.50;99.50;;;;;;4359770;33;43094;-80
2022/07/07 10:57:27;;;;;;;;;;;18.60;99.60;;;;;;4359332;33;20012;-82
2022/07/07 11:00:09;;;;;;;;;;;18.60;99.70;;;;;;4359534;33;43268;-81
2022/07/07 11:02:47;;;;;;;;;;;18.50;99.70;;;;;;4359599;33;43909;-79
2022/07/07 11:05:14;;;;;;;;;;;18.50;99.60;;;;;;4346140;33;42244;-79
2022/07/07 11:07:41;;;;;;;;;;;18.60;99.60;;;;;;4359320;33;44865;-79
2022/07/07 11:10:09;;;;;;;;;;;18.60;99.80;;;;;;4359365;33;43461;-80
2022/07/07 11:12:41;;;;;;;;;;;18.60;99.70;;;;;;4359306;33;43740;-81
2022/07/07 11:15:14;;;;;;;;;;;18.60;99.60;;;;;;4359873;33;44053;-79
2022/07/07 11:17:45;;;;;;;;;;;18.60;99.60;;;;;;4359240;33;43360;-78
2022/07/07 11:20:19;;;;;;;;;;;18.60;99.50;;;;;;4360192;32;43577;-82
2022/07/07 11:22:52;;;;;;;;;;;18.60;99.40;;;;;;4362669;32;43471;-78
2022/07/07 11:25:20;;;;;;;;;;;18.60;99.50;;;;;;4348884;32;42123;-81
2022/07/07 11:27:49;;;;;;;;;;;18.60;99.50;;;;;;4361783;32;20044;-84
2022/07/07 11:30:23;;;;;;;;;;;18.60;99.50;;;;;;4361345;32;42815;-77
2022/07/07 11:32:50;;;;;;;;;;;18.70;99.50;;;;;;4361909;32;42867;-79
2022/07/07 11:35:17;;;;;;;;;;;18.60;99.50;;;;;;4360772;32;42822;-79
2022/07/07 11:37:46;;;;;;;;;;;18.60;99.50;;;;;;4361969;32;43206;-80
2022/07/07 11:40:19;;;;;;;;;;;18.60;99.60;;;;;;4362325;32;43272;-79
2022/07/07 11:42:46;;;;;;;;;;;18.60;99.60;;;;;;4361736;32;43778;-80
2022/07/07 11:45:20;;;;;;;;;;;18.60;99.60;;;;;;4361591;32;44265;-82
2022/07/07 11:47:47;;;;;;;;;;;18.60;99.60;;;;;;4361739;32;43859;-79
2022/07/07 11:50:15;;;;;;;;;;;18.60;99.60;;;;;;4361741;32;43280;-84
2022/07/07 11:52:46;;;;;;;;;;;18.60;99.60;;;;;;4348637;32;44049;-82
2022/07/07 11:55:15;;;;;;;;;;;18.60;99.50;;;;;;4362128;32;43054;-81
2022/07/07 11:57:42;;;;;;;;;;;18.60;99.40;;;;;;4348511;32;43863;-80
2022/07/07 12:00:15;;;;;;;;;;;18.70;99.30;;;;;;4349182;32;20055;-88
2022/07/07 12:02:43;;;;;;;;;;;18.60;99.10;;;;;;4361540;32;44190;-85
2022/07/07 12:05:11;;;;;;;;;;;18.60;99.10;;;;;;4360722;32;43243;-86
2022/07/07 12:07:39;;;;;;;;;;;18.70;99.20;;;;;;4361648;32;45027;-81
2022/07/07 12:10:17;;;;;;;;;;;18.60;99.10;;;;;;4361873;32;43828;-77
2022/07/07 12:12:53;;;;;;;;;;;18.70;99.10;;;;;;4362138;32;44117;-79
2022/07/07 12:15:20;;;;;;;;;;;18.60;99.00;;;;;;4361435;32;42509;-80
2022/07/07 12:17:47;;;;;;;;;;;18.60;99.10;;;;;;4361278;32;43204;-82
2022/07/07 12:20:17;;;;;;;;;;;18.60;99.20;;;;;;4348284;32;43312;-81
2022/07/07 12:22:49;;;;;;;;;;;18.60;99.30;;;;;;4361107;32;44068;-82
2022/07/07 12:25:16;;;;;;;;;;;18.60;99.20;;;;;;4361655;32;44249;-82
2022/07/07 12:28:07;;;;;;;;;;;18.60;99.20;;;;;;4361593;32;44956;-83
2022/07/07 12:30:55;;;;;;;;;;;18.70;99.20;;;;;;4362291;32;20001;-82
2022/07/07 12:33:31;;;;;;;;;;;18.60;99.10;;;;;;4360397;32;43934;-83
2022/07/07 12:36:08;;;;;;;;;;;18.60;99.00;;;;;;4360337;32;43223;-83
2022/07/07 12:38:36;;;;;;;;;;;18.60;99.10;;;;;;4347532;32;44155;-83
2022/07/07 12:41:03;;;;;;;;;;;18.60;99.20;;;;;;4360352;32;43251;-84
2022/07/07 12:43:35;;;;;;;;;;;18.60;99.10;;;;;;4348158;32;44194;-81
2022/07/07 12:46:06;;;;;;;;;;;18.60;99.10;;;;;;4360960;32;42726;-81
2022/07/07 12:48:43;;;;;;;;;;;18.60;99.10;;;;;;4347505;32;42631;-84
2022/07/07 12:51:10;;;;;;;;;;;18.70;99.10;;;;;;4361435;32;44026;-84
2022/07/07 12:53:38;;;;;;;;;;;18.60;98.90;;;;;;4360744;32;42844;-82
2022/07/07 12:56:09;;;;;;;;;;;18.60;98.90;;;;;;4360994;32;44160;-83
2022/07/07 12:58:44;;;;;;;;;;;18.70;99.00;;;;;;4360664;32;44286;-87
2022/07/07 13:01:13;;;;;;;;;;;18.70;99.00;;;;;;4361420;32;22210;-82
2022/07/07 13:03:49;;;;;;;;;;;18.70;99.00;;;;;;4359856;32;42866;-88
2022/07/07 13:06:16;;;;;;;;;;;18.70;99.00;;;;;;4361121;32;43980;-84
2022/07/07 13:08:43;;;;;;;;;;;18.70;99.00;;;;;;4360447;32;44168;-85
2022/07/07 13:11:11;;;;;;;;;;;18.70;99.00;;;;;;4360463;32;45887;-84
2022/07/07 13:13:39;;;;;;;;;;;18.70;99.00;;;;;;4360618;32;44069;-82
2022/07/07 13:16:26;;;;;;;;;;;18.70;99.00;;;;;;4360979;32;46552;-83
2022/07/07 13:18:53;;;;;;;;;;;18.70;99.10;;;;;;4360747;32;43597;-81
2022/07/07 13:21:20;;;;;;;;;;;18.70;99.40;;;;;;4360276;32;43916;-81
2022/07/07 13:23:47;;;;;;;;;;;18.70;99.20;;;;;;4347141;32;43278;-84
2022/07/07 13:26:14;;;;;;;;;;;18.70;99.40;;;;;;4360529;32;42957;-82
2022/07/07 13:28:41;;;;;;;;;;;18.70;99.60;;;;;;4360039;32;45924;-83
2022/07/07 13:31:08;;;;;;;;;;;18.70;99.80;;;;;;4359157;32;44124;-84
2022/07/07 13:33:35;;;;;;;;;;;18.70;99.60;;;;;;4347219;32;43948;-83
2022/07/07 13:36:02;;;;;;;;;;;18.70;99.60;;;;;;4360545;32;43327;-84
2022/07/07 13:38:29;;;;;;;;;;;18.70;99.70;;;;;;4360542;32;44866;-81
2022/07/07 13:40:58;;;;;;;;;;;18.70;99.60;;;;;;4360646;32;44859;-82
2022/07/07 13:43:36;;;;;;;;;;;18.70;99.60;;;;;;4359750;32;42599;-82
2022/07/07 13:46:04;;;;;;;;;;;18.70;99.80;;;;;;4346728;32;44223;-83
2022/07/07 13:48:31;;;;;;;;;;;18.70;99.40;;;;;;4359981;32;43780;-83
2022/07/07 13:50:58;;;;;;;;;;;18.70;99.30;;;;;;4346699;32;43016;-83
2022/07/07 13:53:25;;;;;;;;;;;18.70;99.30;;;;;;4359081;32;42833;-81
2022/07/07 13:55:52;;;;;;;;;;;18.70;99.20;;;;;;4359215;32;43932;-82
2022/07/07 13:58:19;;;;;;;;;;;18.70;99.20;;;;;;4360049;32;44279;-81
2022/07/07 14:00:46;;;;;;;;;;;18.70;99.30;;;;;;4359185;32;42782;-81
2022/07/07 14:03:15;;;;;;;;;;;18.80;99.30;;;;;;4359731;32;43349;-82
2022/07/07 14:05:42;;;;;;;;;;;18.80;99.20;;;;;;4359983;32;43955;-80
2022/07/07 14:08:09;;;;;;;;;;;18.70;99.20;;;;;;4358853;32;43549;-83
2022/07/07 14:10:36;;;;;;;;;;;18.80;99.20;;;;;;4358935;32;44190;-83
2022/07/07 14:13:03;;;;;;;;;;;18.80;99.20;;;;;;4346912;32;43180;-82
2022/07/07 14:15:30;;;;;;;;;;;18.80;99.60;;;;;;4360231;32;43939;-81
2022/07/07 14:17:57;;;;;;;;;;;18.80;99.20;;;;;;4358977;32;43927;-83
2022/07/07 14:20:25;;;;;;;;;;;18.80;99.20;;;;;;4360228;32;43113;-85
2022/07/07 14:22:52;;;;;;;;;;;18.80;99.30;;;;;;4346321;33;43003;-84
2022/07/07 14:25:19;;;;;;;;;;;18.80;99.20;;;;;;4359870;33;44284;-80
2022/07/07 14:27:47;;;;;;;;;;;18.80;99.20;;;;;;4359706;33;44272;-81